Impacts METAR Board INFO
IDs:

KMCO - Orlando Intl, FL, US

Updated at: 1206 UTC 12 Dec 2017
Potential Impact None Slight Moderate High
Time12/00Z 12/01Z 12/02Z 12/03Z 12/04Z 12/05Z 12/06Z 12/07Z 12/08Z 12/09Z 12/10Z 12/11Z 12/12Z
VIS10 10 10 10 10 10 10 10 10 10 10 10
CIG-- -- -- -- -- -- -- -- -- -- -- --
CoverCLRCLRCLRCLRCLRCLRFEWFEWCLRCLRCLRFEW
FltCatVFRVFRVFRVFRVFRVFRVFRVFRVFRVFRVFRVFR
WX------------------------
WDir310270270290270270270230210210220210
WSpd5 3 8 8 9 5 6 8 8 8 7 6
WGst-- -- -- -- -- -- -- -- -- -- -- --
Raw hourly METARs
KMCO 112353Z 31005KT 10SM CLR 11/M01 A3019
KMCO 120053Z 27003KT 10SM CLR 10/M00 A3019
KMCO 120153Z 27008KT 10SM CLR 10/00 A3019
KMCO 120253Z 29008KT 10SM CLR 10/00 A3019
KMCO 120353Z 27009KT 10SM CLR 06/03 A3017
KMCO 120453Z 27005KT 10SM CLR 05/04 A3015
KMCO 120553Z 27006KT 10SM FEW250 04/04 A3013
KMCO 120653Z 23008KT 10SM FEW250 07/05 A3011
KMCO 120753Z 21008KT 10SM CLR 06/05 A3010
KMCO 120853Z 21008KT 10SM CLR 06/06 A3009

KMCO 121053Z 22007KT 10SM CLR 07/07 A3008
KMCO 121153Z 21006KT 10SM FEW300 08/06 A3007